sensor_id;sensor_type;location;lat;lon;timestamp;pressure;altitude;pressure_sealevel;temperature;humidity
4044;BME280;2036;51.578;7.108;2023-11-21T00:01:37;100264.69;;;14.42;100.00
4044;BME280;2036;51.578;7.108;2023-11-21T00:04:03;100263.56;;;14.44;100.00
4044;BME280;2036;51.578;7.108;2023-11-21T00:06:29;100260.78;;;14.46;100.00
4044;BME280;2036;51.578;7.108;2023-11-21T00:08:56;100258.81;;;14.48;100.00
4044;BME280;2036;51.578;7.108;2023-11-21T00:11:22;100266.56;;;14.49;100.00
4044;BME280;2036;51.578;7.108;2023-11-21T00:13:48;100261.84;;;14.53;100.00
4044;BME280;2036;51.578;7.108;2023-11-21T00:16:13;100268.09;;;14.52;100.00
4044;BME280;2036;51.578;7.108;2023-11-21T00:18:39;100263.34;;;14.55;100.00
4044;BME280;2036;51.578;7.108;2023-11-21T00:21:05;100271.28;;;14.55;100.00
4044;BME280;2036;51.578;7.108;2023-11-21T00:23:31;100283.34;;;14.58;100.00
4044;BME280;2036;51.578;7.108;2023-11-21T00:25:57;100272.91;;;14.56;100.00
4044;BME280;2036;51.578;7.108;2023-11-21T00:28:23;100270.28;;;14.56;100.00
4044;BME280;2036;51.578;7.108;2023-11-21T00:30:50;100272.25;;;14.54;100.00
4044;BME280;2036;51.578;7.108;2023-11-21T00:33:16;100278.34;;;14.55;100.00
4044;BME280;2036;51.578;7.108;2023-11-21T00:35:42;100283.94;;;14.52;100.00
4044;BME280;2036;51.578;7.108;2023-11-21T00:38:07;100279.31;;;14.54;100.00
4044;BME280;2036;51.578;7.108;2023-11-21T00:40:34;100283.47;;;14.56;100.00
4044;BME280;2036;51.578;7.108;2023-11-21T00:43:00;100285.44;;;14.54;100.00
4044;BME280;2036;51.578;7.108;2023-11-21T00:45:26;100289.44;;;14.58;100.00
4044;BME280;2036;51.578;7.108;2023-11-21T00:47:52;100289.97;;;14.62;100.00
4044;BME280;2036;51.578;7.108;2023-11-21T00:50:18;100285.22;;;14.65;100.00
4044;BME280;2036;51.578;7.108;2023-11-21T00:52:44;100282.56;;;14.65;100.00
4044;BME280;2036;51.578;7.108;2023-11-21T00:55:10;100283.41;;;14.66;100.00
4044;BME280;2036;51.578;7.108;2023-11-21T00:57:37;100280.31;;;14.70;100.00
4044;BME280;2036;51.578;7.108;2023-11-21T01:00:04;100281.31;;;14.69;100.00
4044;BME280;2036;51.578;7.108;2023-11-21T01:02:39;100277.16;;;14.67;100.00
4044;BME280;2036;51.578;7.108;2023-11-21T01:05:05;100283.41;;;14.66;100.00
4044;BME280;2036;51.578;7.108;2023-11-21T01:07:33;100291.63;;;14.63;100.00
4044;BME280;2036;51.578;7.108;2023-11-21T01:09:59;100300.38;;;14.63;100.00
4044;BME280;2036;51.578;7.108;2023-11-21T01:12:25;100287.06;;;14.65;100.00
4044;BME280;2036;51.578;7.108;2023-11-21T01:14:51;100293.06;;;14.57;100.00
4044;BME280;2036;51.578;7.108;2023-11-21T01:17:16;100297.06;;;14.61;100.00
4044;BME280;2036;51.578;7.108;2023-11-21T01:19:43;100295.56;;;14.59;100.00
4044;BME280;2036;51.578;7.108;2023-11-21T01:22:09;100300.16;;;14.57;100.00
4044;BME280;2036;51.578;7.108;2023-11-21T01:24:37;100303.47;;;14.59;100.00
4044;BME280;2036;51.578;7.108;2023-11-21T01:27:03;100299.47;;;14.55;100.00
4044;BME280;2036;51.578;7.108;2023-11-21T01:29:29;100302.69;;;14.49;100.00
4044;BME280;2036;51.578;7.108;2023-11-21T01:31:55;100313.97;;;14.51;100.00
4044;BME280;2036;51.578;7.108;2023-11-21T01:34:23;100304.53;;;14.48;100.00
4044;BME280;2036;51.578;7.108;2023-11-21T01:36:49;100305.88;;;14.52;100.00
4044;BME280;2036;51.578;7.108;2023-11-21T01:39:16;100310.78;;;14.47;100.00
4044;BME280;2036;51.578;7.108;2023-11-21T01:41:50;100319.16;;;14.43;100.00
4044;BME280;2036;51.578;7.108;2023-11-21T01:44:16;100317.88;;;14.47;100.00
4044;BME280;2036;51.578;7.108;2023-11-21T01:46:42;100309.66;;;14.50;100.00
4044;BME280;2036;51.578;7.108;2023-11-21T01:49:09;100315.53;;;14.44;100.00
4044;BME280;2036;51.578;7.108;2023-11-21T01:51:42;100309.28;;;14.45;100.00
4044;BME280;2036;51.578;7.108;2023-11-21T01:54:09;100316.78;;;14.39;100.00
4044;BME280;2036;51.578;7.108;2023-11-21T01:56:37;100313.88;;;14.43;100.00
4044;BME280;2036;51.578;7.108;2023-11-21T01:59:03;100323.88;;;14.39;100.00
4044;BME280;2036;51.578;7.108;2023-11-21T02:01:29;100324.19;;;14.36;100.00
4044;BME280;2036;51.578;7.108;2023-11-21T02:03:55;100327.81;;;14.35;100.00
4044;BME280;2036;51.578;7.108;2023-11-21T02:06:21;100329.75;;;14.33;100.00
4044;BME280;2036;51.578;7.108;2023-11-21T02:08:47;100329.75;;;14.33;100.00
4044;BME280;2036;51.578;7.108;2023-11-21T02:11:13;100325.44;;;14.32;100.00
4044;BME280;2036;51.578;7.108;2023-11-21T02:13:39;100337.13;;;14.29;100.00
4044;BME280;2036;51.578;7.108;2023-11-21T02:16:10;100334.50;;;14.29;100.00
4044;BME280;2036;51.578;7.108;2023-11-21T02:18:39;100332.56;;;14.31;100.00
4044;BME280;2036;51.578;7.108;2023-11-21T02:21:05;100342.69;;;14.26;100.00
4044;BME280;2036;51.578;7.108;2023-11-21T02:23:31;100341.84;;;14.26;100.00
4044;BME280;2036;51.578;7.108;2023-11-21T02:25:57;100350.59;;;14.26;100.00
4044;BME280;2036;51.578;7.108;2023-11-21T02:28:22;100343.13;;;14.22;100.00
4044;BME280;2036;51.578;7.108;2023-11-21T02:30:54;100344.81;;;14.13;100.00
4044;BME280;2036;51.578;7.108;2023-11-21T02:33:24;100350.53;;;14.09;100.00
4044;BME280;2036;51.578;7.108;2023-11-21T02:35:50;100351.53;;;14.08;100.00
4044;BME280;2036;51.578;7.108;2023-11-21T02:38:23;100352.78;;;14.04;100.00
4044;BME280;2036;51.578;7.108;2023-11-21T02:40:49;100350.13;;;14.04;100.00
4044;BME280;2036;51.578;7.108;2023-11-21T02:43:14;100349.44;;;14.02;100.00
4044;BME280;2036;51.578;7.108;2023-11-21T02:45:40;100355.03;;;13.99;100.00
4044;BME280;2036;51.578;7.108;2023-11-21T02:48:07;100355.31;;;13.96;100.00
4044;BME280;2036;51.578;7.108;2023-11-21T02:50:33;100348.38;;;13.95;100.00
4044;BME280;2036;51.578;7.108;2023-11-21T02:53:01;100356.59;;;13.92;100.00
4044;BME280;2036;51.578;7.108;2023-11-21T02:55:27;100357.44;;;13.83;100.00
4044;BME280;2036;51.578;7.108;2023-11-21T02:57:54;100360.66;;;13.77;100.00
4044;BME280;2036;51.578;7.108;2023-11-21T03:00:22;100365.50;;;13.81;100.00
4044;BME280;2036;51.578;7.108;2023-11-21T03:02:50;100370.63;;;13.83;100.00
4044;BME280;2036;51.578;7.108;2023-11-21T03:05:15;100365.91;;;13.86;100.00
4044;BME280;2036;51.578;7.108;2023-11-21T03:07:41;100361.88;;;13.92;100.00
4044;BME280;2036;51.578;7.108;2023-11-21T03:10:08;100374.63;;;13.96;100.00
4044;BME280;2036;51.578;7.108;2023-11-21T03:12:34;100366.84;;;13.95;100.00
4044;BME280;2036;51.578;7.108;2023-11-21T03:15:00;100375.16;;;14.00;100.00
4044;BME280;2036;51.578;7.108;2023-11-21T03:17:27;100366.41;;;13.99;100.00
4044;BME280;2036;51.578;7.108;2023-11-21T03:19:54;100366.97;;;14.03;100.00
4044;BME280;2036;51.578;7.108;2023-11-21T03:22:20;100371.81;;;14.07;100.00
4044;BME280;2036;51.578;7.108;2023-11-21T03:24:46;100371.69;;;13.99;100.00
4044;BME280;2036;51.578;7.108;2023-11-21T03:27:12;100371.41;;;14.02;100.00
4044;BME280;2036;51.578;7.108;2023-11-21T03:29:37;100368.44;;;14.15;100.00
4044;BME280;2036;51.578;7.108;2023-11-21T03:32:04;100380.91;;;14.22;100.00
4044;BME280;2036;51.578;7.108;2023-11-21T03:34:29;100387.59;;;14.17;100.00
4044;BME280;2036;51.578;7.108;2023-11-21T03:36:55;100387.06;;;14.04;100.00
4044;BME280;2036;51.578;7.108;2023-11-21T03:39:21;100400.16;;;13.96;100.00
4044;BME280;2036;51.578;7.108;2023-11-21T03:41:48;100402.38;;;14.00;100.00
4044;BME280;2036;51.578;7.108;2023-11-21T03:44:14;100401.00;;;13.96;100.00
4044;BME280;2036;51.578;7.108;2023-11-21T03:46:40;100414.63;;;13.92;100.00
4044;BME280;2036;51.578;7.108;2023-11-21T03:49:06;100416.84;;;13.96;100.00
4044;BME280;2036;51.578;7.108;2023-11-21T03:51:33;100417.66;;;13.97;100.00
4044;BME280;2036;51.578;7.108;2023-11-21T03:53:59;100420.44;;;13.95;100.00
4044;BME280;2036;51.578;7.108;2023-11-21T03:56:25;100419.06;;;13.91;100.00
4044;BME280;2036;51.578;7.108;2023-11-21T03:58:51;100416.44;;;13.91;100.00
4044;BME280;2036;51.578;7.108;2023-11-21T04:01:23;100433.22;;;13.90;100.00
4044;BME280;2036;51.578;7.108;2023-11-21T04:03:50;100423.50;;;13.91;100.00
4044;BME280;2036;51.578;7.108;2023-11-21T04:06:17;100432.00;;;13.85;100.00
4044;BME280;2036;51.578;7.108;2023-11-21T04:08:44;100434.47;;;13.86;100.00
4044;BME280;2036;51.578;7.108;2023-11-21T04:11:11;100430.31;;;13.84;100.00
4044;BME280;2036;51.578;7.108;2023-11-21T04:13:41;100432.53;;;13.79;100.00
4044;BME280;2036;51.578;7.108;2023-11-21T04:16:08;100435.75;;;13.73;100.00
4044;BME280;2036;51.578;7.108;2023-11-21T04:18:36;100433.13;;;13.73;100.00
4044;BME280;2036;51.578;7.108;2023-11-21T04:21:06;100435.19;;;13.69;100.00
4044;BME280;2036;51.578;7.108;2023-11-21T04:23:32;100433.53;;;13.68;100.00
4044;BME280;2036;51.578;7.108;2023-11-21T04:25:58;100432.72;;;13.67;100.00
4044;BME280;2036;51.578;7.108;2023-11-21T04:28:24;100432.13;;;13.64;100.00
4044;BME280;2036;51.578;7.108;2023-11-21T04:30:51;100437.16;;;13.67;100.00
4044;BME280;2036;51.578;7.108;2023-11-21T04:33:16;100436.44;;;13.65;100.00
4044;BME280;2036;51.578;7.108;2023-11-21T04:35:42;100431.59;;;13.60;100.00
4044;BME280;2036;51.578;7.108;2023-11-21T04:38:08;100430.75;;;13.60;100.00
4044;BME280;2036;51.578;7.108;2023-11-21T04:40:34;100434.50;;;13.57;100.00
4044;BME280;2036;51.578;7.108;2023-11-21T04:43:00;100437.97;;;13.58;100.00
4044;BME280;2036;51.578;7.108;2023-11-21T04:45:27;100442.56;;;13.56;100.00
4044;BME280;2036;51.578;7.108;2023-11-21T04:47:52;100440.78;;;13.56;100.00
4044;BME280;2036;51.578;7.108;2023-11-21T04:50:18;100442.16;;;13.51;100.00
4044;BME280;2036;51.578;7.108;2023-11-21T04:52:44;100443.94;;;13.50;100.00
4044;BME280;2036;51.578;7.108;2023-11-21T04:55:10;100453.25;;;13.45;100.00
4044;BME280;2036;51.578;7.108;2023-11-21T04:57:37;100455.75;;;13.46;100.00
4044;BME280;2036;51.578;7.108;2023-11-21T05:00:03;100460.34;;;13.44;100.00
4044;BME280;2036;51.578;7.108;2023-11-21T05:02:32;100456.59;;;13.47;100.00
4044;BME280;2036;51.578;7.108;2023-11-21T05:05:00;100460.19;;;13.46;100.00
4044;BME280;2036;51.578;7.108;2023-11-21T05:07:25;100472.25;;;13.48;100.00
4044;BME280;2036;51.578;7.108;2023-11-21T05:09:55;100468.78;;;13.48;100.00
4044;BME280;2036;51.578;7.108;2023-11-21T05:12:22;100466.41;;;13.45;100.00
4044;BME280;2036;51.578;7.108;2023-11-21T05:14:49;100466.72;;;13.51;100.00
4044;BME280;2036;51.578;7.108;2023-11-21T05:17:15;100469.63;;;13.48;100.00
4044;BME280;2036;51.578;7.108;2023-11-21T05:19:41;100469.47;;;13.50;100.00
4044;BME280;2036;51.578;7.108;2023-11-21T05:22:07;100472.25;;;13.48;100.00
4044;BME280;2036;51.578;7.108;2023-11-21T05:24:34;100480.16;;;13.48;100.00
4044;BME280;2036;51.578;7.108;2023-11-21T05:27:00;100490.03;;;13.56;100.00
4044;BME280;2036;51.578;7.108;2023-11-21T05:29:26;100484.47;;;13.49;100.00
4044;BME280;2036;51.578;7.108;2023-11-21T05:31:52;100495.84;;;13.50;100.00
4044;BME280;2036;51.578;7.108;2023-11-21T05:34:18;100495.97;;;13.48;100.00
4044;BME280;2036;51.578;7.108;2023-11-21T05:36:46;100496.81;;;13.49;100.00
4044;BME280;2036;51.578;7.108;2023-11-21T05:39:12;100501.00;;;13.51;100.00
4044;BME280;2036;51.578;7.108;2023-11-21T05:41:38;100497.94;;;13.46;100.00
4044;BME280;2036;51.578;7.108;2023-11-21T05:44:04;100498.78;;;13.47;100.00
4044;BME280;2036;51.578;7.108;2023-11-21T05:46:30;100503.75;;;13.50;100.00
4044;BME280;2036;51.578;7.108;2023-11-21T05:48:56;100517.91;;;13.58;100.00
4044;BME280;2036;51.578;7.108;2023-11-21T05:51:22;100514.97;;;13.52;100.00
4044;BME280;2036;51.578;7.108;2023-11-21T05:53:49;100525.84;;;13.58;100.00
4044;BME280;2036;51.578;7.108;2023-11-21T05:56:14;100531.09;;;13.58;100.00
4044;BME280;2036;51.578;7.108;2023-11-21T05:58:40;100531.91;;;13.59;100.00
4044;BME280;2036;51.578;7.108;2023-11-21T06:01:06;100537.75;;;13.62;100.00
4044;BME280;2036;51.578;7.108;2023-11-21T06:03:35;100537.91;;;13.61;100.00
4044;BME280;2036;51.578;7.108;2023-11-21T06:06:00;100545.09;;;13.68;100.00
4044;BME280;2036;51.578;7.108;2023-11-21T06:08:26;100542.34;;;13.70;100.00
4044;BME280;2036;51.578;7.108;2023-11-21T06:10:52;100551.78;;;13.73;100.00
4044;BME280;2036;51.578;7.108;2023-11-21T06:13:18;100540.13;;;13.85;100.00
4044;BME280;2036;51.578;7.108;2023-11-21T06:15:50;100547.63;;;13.80;100.00
4044;BME280;2036;51.578;7.108;2023-11-21T06:18:17;100553.75;;;13.80;100.00
4044;BME280;2036;51.578;7.108;2023-11-21T06:20:47;100561.78;;;13.79;100.00
4044;BME280;2036;51.578;7.108;2023-11-21T06:23:13;100559.97;;;13.79;100.00
4044;BME280;2036;51.578;7.108;2023-11-21T06:25:39;100569.16;;;13.85;100.00
4044;BME280;2036;51.578;7.108;2023-11-21T06:28:05;100575.66;;;13.81;100.00
4044;BME280;2036;51.578;7.108;2023-11-21T06:30:31;100579.28;;;13.80;100.00
4044;BME280;2036;51.578;7.108;2023-11-21T06:32:57;100576.50;;;13.81;100.00
4044;BME280;2036;51.578;7.108;2023-11-21T06:35:23;100579.72;;;13.85;100.00
4044;BME280;2036;51.578;7.108;2023-11-21T06:37:49;100580.50;;;13.85;100.00
4044;BME280;2036;51.578;7.108;2023-11-21T06:40:18;100583.56;;;13.81;100.00
4044;BME280;2036;51.578;7.108;2023-11-21T06:42:44;100585.09;;;13.83;100.00
4044;BME280;2036;51.578;7.108;2023-11-21T06:45:10;100588.72;;;13.82;100.00
4044;BME280;2036;51.578;7.108;2023-11-21T06:47:37;100595.81;;;13.82;100.00
4044;BME280;2036;51.578;7.108;2023-11-21T06:50:04;100591.91;;;13.86;100.00
4044;BME280;2036;51.578;7.108;2023-11-21T06:52:30;100595.09;;;13.80;100.00
4044;BME280;2036;51.578;7.108;2023-11-21T06:54:55;100605.66;;;13.80;100.00
4044;BME280;2036;51.578;7.108;2023-11-21T06:57:23;100603.84;;;13.80;100.00
4044;BME280;2036;51.578;7.108;2023-11-21T06:59:49;100612.47;;;13.82;100.00
4044;BME280;2036;51.578;7.108;2023-11-21T07:02:16;100612.47;;;13.82;100.00
4044;BME280;2036;51.578;7.108;2023-11-21T07:04:45;100615.50;;;13.78;100.00
4044;BME280;2036;51.578;7.108;2023-11-21T07:07:12;100621.19;;;13.83;100.00
4044;BME280;2036;51.578;7.108;2023-11-21T07:09:38;100618.84;;;13.80;100.00
4044;BME280;2036;51.578;7.108;2023-11-21T07:12:05;100624.81;;;13.82;100.00
4044;BME280;2036;51.578;7.108;2023-11-21T07:14:34;100617.44;;;13.85;100.00
